sensor_id;sensor_type;location;lat;lon;timestamp;pressure;altitude;pressure_sealevel;temperature;humidity
67377;BME280;54261;46.086;6.588;2023-03-13T00:02:04;92477.81;;;7.57;41.23
67377;BME280;54261;46.086;6.588;2023-03-13T00:07:06;92486.69;;;7.80;41.16
67377;BME280;54261;46.086;6.588;2023-03-13T00:12:08;92474.16;;;7.25;42.06
67377;BME280;54261;46.086;6.588;2023-03-13T00:17:10;92484.84;;;8.18;40.98
67377;BME280;54261;46.086;6.588;2023-03-13T00:22:11;92482.88;;;8.10;42.04
67377;BME280;54261;46.086;6.588;2023-03-13T00:27:13;92474.94;;;8.41;40.43
67377;BME280;54261;46.086;6.588;2023-03-13T00:32:15;92465.94;;;8.14;39.51
67377;BME280;54261;46.086;6.588;2023-03-13T00:37:17;92468.69;;;8.23;40.51
67377;BME280;54261;46.086;6.588;2023-03-13T00:42:21;92477.44;;;8.60;39.64
67377;BME280;54261;46.086;6.588;2023-03-13T00:47:23;92468.03;;;8.40;40.00
67377;BME280;54261;46.086;6.588;2023-03-13T00:52:25;92481.88;;;8.65;38.37
67377;BME280;54261;46.086;6.588;2023-03-13T00:57:28;92457.75;;;8.56;38.75
67377;BME280;54261;46.086;6.588;2023-03-13T01:02:30;92465.47;;;8.58;39.40
67377;BME280;54261;46.086;6.588;2023-03-13T01:07:33;92487.94;;;8.57;37.48
67377;BME280;54261;46.086;6.588;2023-03-13T01:12:35;92478.34;;;8.10;38.31
67377;BME280;54261;46.086;6.588;2023-03-13T01:17:37;92481.91;;;8.05;36.30
67377;BME280;54261;46.086;6.588;2023-03-13T01:22:40;92494.97;;;8.07;37.61
67377;BME280;54261;46.086;6.588;2023-03-13T01:27:41;92490.56;;;8.71;38.68
67377;BME280;54261;46.086;6.588;2023-03-13T01:32:43;92481.88;;;8.42;38.43
67377;BME280;54261;46.086;6.588;2023-03-13T01:37:45;92452.19;;;7.56;41.04
67377;BME280;54261;46.086;6.588;2023-03-13T01:42:52;92444.69;;;7.02;40.80
67377;BME280;54261;46.086;6.588;2023-03-13T01:47:54;92442.72;;;7.36;40.20
67377;BME280;54261;46.086;6.588;2023-03-13T01:53:12;92433.94;;;7.21;40.20
67377;BME280;54261;46.086;6.588;2023-03-13T01:58:14;92432.41;;;7.43;36.78
67377;BME280;54261;46.086;6.588;2023-03-13T02:03:18;92415.88;;;6.71;38.44
67377;BME280;54261;46.086;6.588;2023-03-13T02:08:31;92414.44;;;7.86;37.79
67377;BME280;54261;46.086;6.588;2023-03-13T02:13:36;92414.88;;;7.65;38.09
67377;BME280;54261;46.086;6.588;2023-03-13T02:18:38;92402.94;;;8.76;36.88
67377;BME280;54261;46.086;6.588;2023-03-13T02:23:52;92408.28;;;8.76;32.74
67377;BME280;54261;46.086;6.588;2023-03-13T02:28:55;92398.81;;;7.79;33.52
67377;BME280;54261;46.086;6.588;2023-03-13T02:33:59;92406.22;;;7.82;34.48
67377;BME280;54261;46.086;6.588;2023-03-13T02:39:04;92430.28;;;9.37;34.42
67377;BME280;54261;46.086;6.588;2023-03-13T02:44:07;92442.44;;;9.43;33.37
67377;BME280;54261;46.086;6.588;2023-03-13T02:49:19;92420.59;;;9.76;33.38
67377;BME280;54261;46.086;6.588;2023-03-13T02:54:24;92408.13;;;8.73;35.12
67377;BME280;54261;46.086;6.588;2023-03-13T02:59:28;92359.94;;;6.38;36.22
67377;BME280;54261;46.086;6.588;2023-03-13T03:04:31;92379.66;;;7.26;35.55
67377;BME280;54261;46.086;6.588;2023-03-13T03:09:33;92366.34;;;6.98;34.15
67377;BME280;54261;46.086;6.588;2023-03-13T03:14:40;92372.63;;;8.58;32.62
67377;BME280;54261;46.086;6.588;2023-03-13T03:19:42;92374.16;;;8.82;33.24
67377;BME280;54261;46.086;6.588;2023-03-13T03:24:43;92376.28;;;5.02;36.86
67377;BME280;54261;46.086;6.588;2023-03-13T03:29:45;92369.19;;;5.93;35.97
67377;BME280;54261;46.086;6.588;2023-03-13T03:34:47;92384.03;;;4.98;37.19
67377;BME280;54261;46.086;6.588;2023-03-13T03:39:49;92366.78;;;4.96;39.23
67377;BME280;54261;46.086;6.588;2023-03-13T03:44:51;92388.69;;;4.34;43.24
67377;BME280;54261;46.086;6.588;2023-03-13T03:49:53;92380.47;;;3.66;44.61
67377;BME280;54261;46.086;6.588;2023-03-13T03:54:55;92395.97;;;4.52;42.99
67377;BME280;54261;46.086;6.588;2023-03-13T03:59:57;92393.03;;;4.54;43.02
67377;BME280;54261;46.086;6.588;2023-03-13T04:04:59;92400.75;;;3.46;46.24
67377;BME280;54261;46.086;6.588;2023-03-13T04:10:07;92396.09;;;3.67;47.37
67377;BME280;54261;46.086;6.588;2023-03-13T04:15:16;92386.16;;;3.83;45.27
67377;BME280;54261;46.086;6.588;2023-03-13T04:20:18;92371.00;;;3.89;46.68
67377;BME280;54261;46.086;6.588;2023-03-13T04:25:20;92368.94;;;4.94;45.21
67377;BME280;54261;46.086;6.588;2023-03-13T04:30:24;92375.81;;;4.70;44.41
67377;BME280;54261;46.086;6.588;2023-03-13T04:35:45;92376.03;;;4.25;46.12
67377;BME280;54261;46.086;6.588;2023-03-13T04:40:53;92370.69;;;3.91;47.95
67377;BME280;54261;46.086;6.588;2023-03-13T04:46:23;92373.72;;;4.92;44.93
67377;BME280;54261;46.086;6.588;2023-03-13T04:51:42;92348.34;;;3.97;47.41
67377;BME280;54261;46.086;6.588;2023-03-13T04:56:44;92367.50;;;5.02;45.41
67377;BME280;54261;46.086;6.588;2023-03-13T05:01:59;92345.69;;;6.29;43.67
67377;BME280;54261;46.086;6.588;2023-03-13T05:07:16;92332.56;;;6.18;41.94
67377;BME280;54261;46.086;6.588;2023-03-13T05:12:56;92343.66;;;6.06;43.80
67377;BME280;54261;46.086;6.588;2023-03-13T05:18:08;92343.56;;;6.59;41.74
67377;BME280;54261;46.086;6.588;2023-03-13T05:23:39;92383.94;;;4.84;46.15
67377;BME280;54261;46.086;6.588;2023-03-13T05:29:01;92380.03;;;4.77;45.59
67377;BME280;54261;46.086;6.588;2023-03-13T05:34:15;92386.13;;;8.21;41.31
67377;BME280;54261;46.086;6.588;2023-03-13T05:39:42;92370.75;;;8.27;39.79
67377;BME280;54261;46.086;6.588;2023-03-13T05:44:51;92333.88;;;9.89;37.56
67377;BME280;54261;46.086;6.588;2023-03-13T05:50:19;92347.25;;;10.33;35.82
67377;BME280;54261;46.086;6.588;2023-03-13T05:55:47;92325.59;;;8.57;39.11
67377;BME280;54261;46.086;6.588;2023-03-13T06:01:10;92316.88;;;8.83;39.00
67377;BME280;54261;46.086;6.588;2023-03-13T06:06:34;92314.41;;;7.55;38.56
67377;BME280;54261;46.086;6.588;2023-03-13T06:11:37;92291.47;;;9.91;36.74
67377;BME280;54261;46.086;6.588;2023-03-13T06:16:39;92295.78;;;7.87;37.67
67377;BME280;54261;46.086;6.588;2023-03-13T06:21:53;92272.94;;;6.42;41.20
67377;BME280;54261;46.086;6.588;2023-03-13T06:26:55;92292.00;;;8.42;39.87
67377;BME280;54261;46.086;6.588;2023-03-13T06:31:57;92275.75;;;9.46;37.76
67377;BME280;54261;46.086;6.588;2023-03-13T06:36:59;92275.06;;;8.15;39.21
67377;BME280;54261;46.086;6.588;2023-03-13T06:42:01;92261.31;;;8.89;38.47
67377;BME280;54261;46.086;6.588;2023-03-13T06:47:03;92251.13;;;7.87;39.54
67377;BME280;54261;46.086;6.588;2023-03-13T06:52:05;92266.13;;;6.22;42.55
67377;BME280;54261;46.086;6.588;2023-03-13T06:57:06;92259.22;;;8.28;40.16
67377;BME280;54261;46.086;6.588;2023-03-13T07:02:11;92241.75;;;8.62;39.94
67377;BME280;54261;46.086;6.588;2023-03-13T07:07:13;92251.47;;;9.33;38.42
67377;BME280;54261;46.086;6.588;2023-03-13T07:12:30;92232.47;;;8.19;39.90
67377;BME280;54261;46.086;6.588;2023-03-13T07:17:31;92236.09;;;7.91;40.68
67377;BME280;54261;46.086;6.588;2023-03-13T07:22:33;92220.69;;;7.43;41.61
67377;BME280;54261;46.086;6.588;2023-03-13T07:27:35;92203.41;;;9.02;39.27
67377;BME280;54261;46.086;6.588;2023-03-13T07:32:39;92227.06;;;8.42;40.59
67377;BME280;54261;46.086;6.588;2023-03-13T07:37:40;92210.19;;;9.08;39.53
67377;BME280;54261;46.086;6.588;2023-03-13T07:42:42;92207.38;;;9.04;40.27
67377;BME280;54261;46.086;6.588;2023-03-13T07:47:44;92207.97;;;6.38;44.29
67377;BME280;54261;46.086;6.588;2023-03-13T07:52:46;92204.22;;;8.44;40.62
67377;BME280;54261;46.086;6.588;2023-03-13T07:57:48;92229.78;;;10.57;37.87
67377;BME280;54261;46.086;6.588;2023-03-13T08:02:50;92180.28;;;9.98;39.27
67377;BME280;54261;46.086;6.588;2023-03-13T08:07:51;92205.16;;;10.25;38.68
67377;BME280;54261;46.086;6.588;2023-03-13T08:12:53;92187.38;;;11.01;36.98
67377;BME280;54261;46.086;6.588;2023-03-13T08:17:55;92176.81;;;10.06;38.09
67377;BME280;54261;46.086;6.588;2023-03-13T08:22:57;92158.06;;;10.66;37.05
67377;BME280;54261;46.086;6.588;2023-03-13T08:27:59;92176.66;;;9.94;39.92
67377;BME280;54261;46.086;6.588;2023-03-13T08:33:03;92163.00;;;11.28;37.99
67377;BME280;54261;46.086;6.588;2023-03-13T08:38:08;92182.97;;;11.73;36.77
67377;BME280;54261;46.086;6.588;2023-03-13T08:43:09;92169.69;;;11.00;37.72
67377;BME280;54261;46.086;6.588;2023-03-13T08:48:11;92155.00;;;11.74;35.73
67377;BME280;54261;46.086;6.588;2023-03-13T08:53:13;92174.56;;;9.60;41.25
67377;BME280;54261;46.086;6.588;2023-03-13T08:58:15;92173.19;;;10.41;38.84
67377;BME280;54261;46.086;6.588;2023-03-13T09:03:17;92130.81;;;8.59;42.99
67377;BME280;54261;46.086;6.588;2023-03-13T09:08:18;92144.03;;;11.12;39.78
67377;BME280;54261;46.086;6.588;2023-03-13T09:13:20;92117.66;;;12.43;36.10
67377;BME280;54261;46.086;6.588;2023-03-13T09:18:22;92098.13;;;12.34;36.66
67377;BME280;54261;46.086;6.588;2023-03-13T09:23:25;92100.63;;;13.78;33.94
67377;BME280;54261;46.086;6.588;2023-03-13T09:28:27;92095.66;;;14.29;34.25
67377;BME280;54261;46.086;6.588;2023-03-13T09:33:29;92098.59;;;14.55;33.96
67377;BME280;54261;46.086;6.588;2023-03-13T09:38:31;92085.69;;;12.17;36.47
67377;BME280;54261;46.086;6.588;2023-03-13T09:43:48;92076.16;;;13.71;36.31
67377;BME280;54261;46.086;6.588;2023-03-13T09:49:00;92070.63;;;14.83;34.73
67377;BME280;54261;46.086;6.588;2023-03-13T09:54:08;92064.44;;;15.22;34.27
67377;BME280;54261;46.086;6.588;2023-03-13T09:59:36;92047.59;;;14.90;34.29
67377;BME280;54261;46.086;6.588;2023-03-13T10:04:52;92035.81;;;14.98;34.08
67377;BME280;54261;46.086;6.588;2023-03-13T10:09:58;92027.16;;;12.51;37.54
67377;BME280;54261;46.086;6.588;2023-03-13T10:20:30;92010.97;;;13.37;36.72
67377;BME280;54261;46.086;6.588;2023-03-13T10:25:36;91983.88;;;12.44;37.31
67377;BME280;54261;46.086;6.588;2023-03-13T10:30:44;91993.75;;;12.40;38.11
67377;BME280;54261;46.086;6.588;2023-03-13T10:36:01;91979.03;;;14.39;36.22
67377;BME280;54261;46.086;6.588;2023-03-13T10:46:27;91968.25;;;14.03;35.17
67377;BME280;54261;46.086;6.588;2023-03-13T10:51:36;91967.78;;;15.59;33.72
67377;BME280;54261;46.086;6.588;2023-03-13T10:56:38;91959.91;;;15.73;33.76
67377;BME280;54261;46.086;6.588;2023-03-13T11:01:41;91904.59;;;16.24;32.35
67377;BME280;54261;46.086;6.588;2023-03-13T11:06:49;91924.72;;;15.23;32.73
67377;BME280;54261;46.086;6.588;2023-03-13T11:17:36;91907.09;;;14.47;35.33
67377;BME280;54261;46.086;6.588;2023-03-13T11:38:36;91882.72;;;11.61;39.63
67377;BME280;54261;46.086;6.588;2023-03-13T11:43:49;91914.22;;;11.23;40.51
67377;BME280;54261;46.086;6.588;2023-03-13T11:49:16;91892.84;;;14.26;37.52
67377;BME280;54261;46.086;6.588;2023-03-13T12:04:53;91852.09;;;15.45;34.76
67377;BME280;54261;46.086;6.588;2023-03-13T12:10:03;91855.41;;;13.69;36.18
67377;BME280;54261;46.086;6.588;2023-03-13T12:15:22;91839.47;;;12.64;39.01
67377;BME280;54261;46.086;6.588;2023-03-13T12:25:57;91826.13;;;13.52;38.30
67377;BME280;54261;46.086;6.588;2023-03-13T12:31:20;91826.28;;;14.34;37.97
67377;BME280;54261;46.086;6.588;2023-03-13T12:41:43;91797.22;;;11.92;41.41
67377;BME280;54261;46.086;6.588;2023-03-13T12:47:13;91770.53;;;13.79;39.13
67377;BME280;54261;46.086;6.588;2023-03-13T12:52:23;91775.91;;;12.59;40.02
67377;BME280;54261;46.086;6.588;2023-03-13T13:03:08;91743.22;;;13.45;39.05
67377;BME280;54261;46.086;6.588;2023-03-13T13:08:25;91742.34;;;17.36;34.64
67377;BME280;54261;46.086;6.588;2023-03-13T13:13:29;91707.22;;;13.53;38.91
67377;BME280;54261;46.086;6.588;2023-03-13T13:18:32;91705.03;;;16.63;34.75
67377;BME280;54261;46.086;6.588;2023-03-13T13:23:36;91693.28;;;19.99;31.10
67377;BME280;54261;46.086;6.588;2023-03-13T13:28:39;91672.59;;;18.76;26.76
67377;BME280;54261;46.086;6.588;2023-03-13T13:33:44;91670.28;;;15.21;34.55
67377;BME280;54261;46.086;6.588;2023-03-13T13:38:46;91657.47;;;18.72;29.18
67377;BME280;54261;46.086;6.588;2023-03-13T13:43:50;91648.69;;;15.24;30.38
67377;BME280;54261;46.086;6.588;2023-03-13T13:59:49;91581.97;;;19.45;25.85
67377;BME280;54261;46.086;6.588;2023-03-13T14:05:01;91568.50;;;17.49;29.30
67377;BME280;54261;46.086;6.588;2023-03-13T14:10:16;91551.97;;;18.34;25.33
67377;BME280;54261;46.086;6.588;2023-03-13T14:15:20;91526.41;;;19.46;23.61
67377;BME280;54261;46.086;6.588;2023-03-13T14:20:33;91520.63;;;19.97;23.76
67377;BME280;54261;46.086;6.588;2023-03-13T14:25:48;91493.75;;;20.02;23.50
67377;BME280;54261;46.086;6.588;2023-03-13T14:30:53;91464.66;;;21.14;22.07
67377;BME280;54261;46.086;6.588;2023-03-13T14:35:54;91482.97;;;21.45;21.16
67377;BME280;54261;46.086;6.588;2023-03-13T14:40:58;91466.13;;;19.58;22.51
67377;BME280;54261;46.086;6.588;2023-03-13T14:51:43;91431.13;;;20.48;21.98
67377;BME280;54261;46.086;6.588;2023-03-13T14:56:45;91401.53;;;19.66;22.65
67377;BME280;54261;46.086;6.588;2023-03-13T15:02:18;91402.38;;;22.16;20.01
67377;BME280;54261;46.086;6.588;2023-03-13T15:07:20;91389.41;;;20.20;20.95
67377;BME280;54261;46.086;6.588;2023-03-13T15:12:22;91353.72;;;20.45;21.87
67377;BME280;54261;46.086;6.588;2023-03-13T15:17:26;91364.97;;;21.65;20.96
67377;BME280;54261;46.086;6.588;2023-03-13T15:22:33;91353.91;;;20.62;21.02
67377;BME280;54261;46.086;6.588;2023-03-13T15:27:36;91341.53;;;18.68;23.09
67377;BME280;54261;46.086;6.588;2023-03-13T15:32:38;91338.16;;;19.69;21.46
67377;BME280;54261;46.086;6.588;2023-03-13T15:37:40;91329.94;;;18.60;22.44
67377;BME280;54261;46.086;6.588;2023-03-13T15:42:42;91311.09;;;19.93;20.71
67377;BME280;54261;46.086;6.588;2023-03-13T15:47:44;91285.25;;;17.90;22.84
67377;BME280;54261;46.086;6.588;2023-03-13T15:52:46;91277.63;;;17.05;24.16
67377;BME280;54261;46.086;6.588;2023-03-13T15:57:49;91264.03;;;17.23;24.53
67377;BME280;54261;46.086;6.588;2023-03-13T16:02:51;91259.28;;;17.82;23.10
67377;BME280;54261;46.086;6.588;2023-03-13T16:07:53;91240.00;;;17.40;23.08
67377;BME280;54261;46.086;6.588;2023-03-13T16:12:55;91230.69;;;17.48;22.64
67377;BME280;54261;46.086;6.588;2023-03-13T16:17:57;91228.47;;;16.81;23.96
67377;BME280;54261;46.086;6.588;2023-03-13T16:22:59;91228.84;;;17.05;23.21
67377;BME280;54261;46.086;6.588;2023-03-13T16:28:04;91230.16;;;18.71;21.96
67377;BME280;54261;46.086;6.588;2023-03-13T16:33:08;91191.28;;;16.38;24.29
67377;BME280;54261;46.086;6.588;2023-03-13T16:38:10;91195.13;;;16.37;23.56
67377;BME280;54261;46.086;6.588;2023-03-13T16:43:12;91219.00;;;17.80;22.40
67377;BME280;54261;46.086;6.588;2023-03-13T16:48:16;91217.88;;;19.47;21.43
67377;BME280;54261;46.086;6.588;2023-03-13T16:53:19;91202.47;;;17.24;23.08
67377;BME280;54261;46.086;6.588;2023-03-13T16:58:21;91224.56;;;16.93;23.38
67377;BME280;54261;46.086;6.588;2023-03-13T17:03:23;91219.53;;;17.02;23.93
67377;BME280;54261;46.086;6.588;2023-03-13T17:08:25;91217.59;;;16.88;24.09
67377;BME280;54261;46.086;6.588;2023-03-13T17:13:26;91221.69;;;15.14;25.81
67377;BME280;54261;46.086;6.588;2023-03-13T17:18:28;91194.78;;;16.82;24.52
67377;BME280;54261;46.086;6.588;2023-03-13T17:23:31;91189.72;;;16.33;24.48
67377;BME280;54261;46.086;6.588;2023-03-13T17:28:34;91204.09;;;14.82;25.36
67377;BME280;54261;46.086;6.588;2023-03-13T17:33:35;91177.53;;;15.62;24.67
67377;BME280;54261;46.086;6.588;2023-03-13T17:38:37;91184.59;;;14.09;27.42
67377;BME280;54261;46.086;6.588;2023-03-13T17:43:40;91188.13;;;14.59;26.55
67377;BME280;54261;46.086;6.588;2023-03-13T17:48:43;91178.84;;;16.04;25.24
67377;BME280;54261;46.086;6.588;2023-03-13T17:53:46;91170.97;;;15.63;25.17
67377;BME280;54261;46.086;6.588;2023-03-13T17:58:50;91145.53;;;14.37;25.75
67377;BME280;54261;46.086;6.588;2023-03-13T18:03:54;91144.03;;;15.03;25.61
67377;BME280;54261;46.086;6.588;2023-03-13T18:08:58;91133.66;;;14.04;27.15
67377;BME280;54261;46.086;6.588;2023-03-13T18:14:04;91112.66;;;14.77;26.44
67377;BME280;54261;46.086;6.588;2023-03-13T18:19:12;91116.03;;;14.63;26.86
67377;BME280;54261;46.086;6.588;2023-03-13T18:24:16;91134.72;;;13.92;28.48
67377;BME280;54261;46.086;6.588;2023-03-13T18:29:23;91140.47;;;15.66;27.51
67377;BME280;54261;46.086;6.588;2023-03-13T18:34:29;91145.00;;;17.76;25.06
67377;BME280;54261;46.086;6.588;2023-03-13T18:39:32;91131.97;;;18.13;24.67
67377;BME280;54261;46.086;6.588;2023-03-13T18:44:34;91107.44;;;18.34;23.92
67377;BME280;54261;46.086;6.588;2023-03-13T18:49:35;91115.06;;;17.94;24.98
67377;BME280;54261;46.086;6.588;2023-03-13T18:54:37;91148.69;;;18.11;24.34
67377;BME280;54261;46.086;6.588;2023-03-13T18:59:40;91158.34;;;18.16;24.97
67377;BME280;54261;46.086;6.588;2023-03-13T19:04:43;91146.63;;;18.30;24.33
67377;BME280;54261;46.086;6.588;2023-03-13T19:09:45;91188.44;;;17.58;24.62
67377;BME280;54261;46.086;6.588;2023-03-13T19:14:48;91179.81;;;17.85;25.11
67377;BME280;54261;46.086;6.588;2023-03-13T19:19:49;91181.63;;;16.80;26.51
67377;BME280;54261;46.086;6.588;2023-03-13T19:24:51;91175.81;;;16.97;27.04
67377;BME280;54261;46.086;6.588;2023-03-13T19:29:53;91155.84;;;17.76;27.15
67377;BME280;54261;46.086;6.588;2023-03-13T19:34:55;91151.44;;;16.17;29.24
67377;BME280;54261;46.086;6.588;2023-03-13T19:39:57;91140.84;;;15.61;30.50
67377;BME280;54261;46.086;6.588;2023-03-13T19:44:59;91121.91;;;15.61;31.71
67377;BME280;54261;46.086;6.588;2023-03-13T19:50:01;91112.75;;;16.34;30.81
67377;BME280;54261;46.086;6.588;2023-03-13T19:55:02;91077.19;;;16.58;30.42
67377;BME280;54261;46.086;6.588;2023-03-13T20:00:07;91051.44;;;17.35;29.55
67377;BME280;54261;46.086;6.588;2023-03-13T20:05:14;91038.56;;;17.54;29.48
67377;BME280;54261;46.086;6.588;2023-03-13T20:10:16;91013.22;;;17.78;29.15
67377;BME280;54261;46.086;6.588;2023-03-13T20:15:18;91009.72;;;17.82;29.16
67377;BME280;54261;46.086;6.588;2023-03-13T20:20:20;90986.75;;;16.26;31.43
67377;BME280;54261;46.086;6.588;2023-03-13T20:25:21;90985.22;;;15.96;32.18
67377;BME280;54261;46.086;6.588;2023-03-13T20:30:25;91057.91;;;8.57;47.15
67377;BME280;54261;46.086;6.588;2023-03-13T20:35:29;91074.00;;;6.14;61.29
67377;BME280;54261;46.086;6.588;2023-03-13T20:40:31;91130.47;;;7.01;61.68
67377;BME280;54261;46.086;6.588;2023-03-13T20:45:33;91185.47;;;5.64;71.09
67377;BME280;54261;46.086;6.588;2023-03-13T20:50:35;91252.44;;;6.62;71.92
67377;BME280;54261;46.086;6.588;2023-03-13T20:55:37;91267.66;;;4.95;79.85
67377;BME280;54261;46.086;6.588;2023-03-13T21:00:40;91287.16;;;4.24;84.09
67377;BME280;54261;46.086;6.588;2023-03-13T21:05:42;91329.75;;;3.64;82.05
67377;BME280;54261;46.086;6.588;2023-03-13T21:10:44;91333.81;;;2.88;84.80
67377;BME280;54261;46.086;6.588;2023-03-13T21:15:46;91416.25;;;2.58;84.13
67377;BME280;54261;46.086;6.588;2023-03-13T21:20:48;91431.19;;;2.82;84.93
67377;BME280;54261;46.086;6.588;2023-03-13T21:25:52;91494.91;;;1.92;93.79
67377;BME280;54261;46.086;6.588;2023-03-13T21:30:55;91531.84;;;1.58;97.90
67377;BME280;54261;46.086;6.588;2023-03-13T21:35:57;91508.84;;;1.15;95.47
67377;BME280;54261;46.086;6.588;2023-03-13T21:40:59;91435.69;;;0.62;89.13
67377;BME280;54261;46.086;6.588;2023-03-13T21:46:01;91502.38;;;1.27;90.19
67377;BME280;54261;46.086;6.588;2023-03-13T21:51:04;91512.13;;;2.08;89.59
67377;BME280;54261;46.086;6.588;2023-03-13T21:56:07;91545.91;;;1.97;88.15
67377;BME280;54261;46.086;6.588;2023-03-13T22:01:10;91575.78;;;2.17;84.73
67377;BME280;54261;46.086;6.588;2023-03-13T22:06:15;91557.81;;;4.25;79.53
67377;BME280;54261;46.086;6.588;2023-03-13T22:11:17;91562.41;;;3.27;80.76
67377;BME280;54261;46.086;6.588;2023-03-13T22:16:19;91564.47;;;5.46;70.73
67377;BME280;54261;46.086;6.588;2023-03-13T22:21:26;91486.19;;;5.47;68.17
67377;BME280;54261;46.086;6.588;2023-03-13T22:26:28;91520.94;;;6.26;68.81
67377;BME280;54261;46.086;6.588;2023-03-13T22:31:30;91547.00;;;4.22;73.68
67377;BME280;54261;46.086;6.588;2023-03-13T22:36:32;91539.91;;;4.17;73.80
67377;BME280;54261;46.086;6.588;2023-03-13T22:41:33;91557.28;;;5.15;69.99
67377;BME280;54261;46.086;6.588;2023-03-13T22:46:35;91617.28;;;3.12;74.94
67377;BME280;54261;46.086;6.588;2023-03-13T22:51:37;91644.38;;;4.26;73.93
67377;BME280;54261;46.086;6.588;2023-03-13T22:56:39;91654.44;;;4.02;70.33
67377;BME280;54261;46.086;6.588;2023-03-13T23:01:40;91674.72;;;4.48;70.12
67377;BME280;54261;46.086;6.588;2023-03-13T23:06:42;91699.38;;;2.84;73.74
67377;BME280;54261;46.086;6.588;2023-03-13T23:11:44;91691.94;;;5.79;69.75
67377;BME280;54261;46.086;6.588;2023-03-13T23:16:46;91743.91;;;3.87;67.96
67377;BME280;54261;46.086;6.588;2023-03-13T23:21:48;91738.81;;;3.57;72.29
67377;BME280;54261;46.086;6.588;2023-03-13T23:26:49;91707.28;;;6.72;67.50
67377;BME280;54261;46.086;6.588;2023-03-13T23:31:51;91637.88;;;7.42;62.23
67377;BME280;54261;46.086;6.588;2023-03-13T23:36:53;91566.41;;;6.65;56.07
67377;BME280;54261;46.086;6.588;2023-03-13T23:41:55;91580.28;;;7.32;55.15
67377;BME280;54261;46.086;6.588;2023-03-13T23:46:57;91603.03;;;7.86;56.31
67377;BME280;54261;46.086;6.588;2023-03-13T23:51:58;91696.03;;;7.10;53.81
67377;BME280;54261;46.086;6.588;2023-03-13T23:57:01;91649.97;;;6.34;57.53
